Time;durP1;ratioP1;P1;durP2;ratioP2;P2;SDS_P1;SDS_P2;PMS_P1;PMS_P2;Temp;Humidity;BMP_temperature;BMP_pressure;BME280_temperature;BME280_humidity;BME280_pressure;Samples;Min_cycle;Max_cycle;Signal;HPM_P1;HPM_P2
2022/04/02 00:01:45;;;;;;;14.13;7.30;;;;;;;5.34;57.05;96734.13;8389737;28;20400;-66
2022/04/02 00:05:52;;;;;;;12.77;6.13;;;;;;;4.90;58.13;96729.97;8390639;28;20238;-67
2022/04/02 00:09:55;;;;;;;14.80;7.00;;;;;;;5.07;56.87;96735.22;8386501;28;20243;-67
2022/04/02 00:13:58;;;;;;;18.47;6.50;;;;;;;5.33;56.88;96737.56;8399690;28;20238;-66
2022/04/02 00:18:01;;;;;;;16.50;6.57;;;;;;;5.26;57.11;96737.03;8390407;28;20242;-66
2022/04/02 00:22:05;;;;;;;18.23;6.60;;;;;;;4.94;57.30;96740.94;8390085;28;20231;-67
2022/04/02 00:26:09;;;;;;;15.63;6.77;;;;;;;5.03;56.28;96732.84;8390031;28;20227;-67
2022/04/02 00:30:12;;;;;;;15.57;6.07;;;;;;;5.14;56.58;96740.09;8389304;28;20227;-67
2022/04/02 00:34:16;;;;;;;21.07;6.33;;;;;;;5.31;55.93;96740.19;8387826;28;20561;-67
2022/04/02 00:38:20;;;;;;;16.87;6.10;;;;;;;5.41;56.00;96746.63;8384756;28;20257;-68
2022/04/02 00:42:23;;;;;;;14.50;5.97;;;;;;;5.29;56.18;96742.84;8384586;28;20235;-67
2022/04/02 00:46:26;;;;;;;19.80;6.23;;;;;;;5.33;56.42;96752.97;8384369;28;20241;-67
2022/04/02 00:50:29;;;;;;;17.02;6.57;;;;;;;5.48;56.34;96754.88;8384117;28;20732;-67
2022/04/02 00:54:34;;;;;;;17.57;5.80;;;;;;;5.35;56.49;96746.91;8384274;28;20223;-67
2022/04/02 00:58:39;;;;;;;13.87;5.70;;;;;;;5.53;56.04;96762.41;8384071;28;20227;-67
2022/04/02 01:02:41;;;;;;;13.67;5.70;;;;;;;5.51;55.72;96764.22;8383918;28;20231;-66
2022/04/02 01:06:44;;;;;;;18.47;5.80;;;;;;;5.53;55.89;96760.66;8384028;28;20269;-66
2022/04/02 01:10:51;;;;;;;18.40;6.10;;;;;;;5.43;55.97;96762.78;8383893;28;20427;-66
2022/04/02 01:14:54;;;;;;;17.63;5.40;;;;;;;5.34;56.34;96763.19;8375480;28;20227;-67
2022/04/02 01:18:57;;;;;;;21.77;6.10;;;;;;;5.22;56.00;96767.13;8383541;28;20235;-67
2022/04/02 01:23:02;;;;;;;20.93;5.70;;;;;;;5.43;55.92;96769.69;8383608;28;20523;-67
2022/04/02 01:27:07;;;;;;;11.27;5.23;;;;;;;5.34;56.05;96770.88;8383458;28;20589;-67
2022/04/02 01:31:10;;;;;;;19.60;5.40;;;;;;;5.08;56.77;96779.66;8374693;28;20238;-67
2022/04/02 01:35:14;;;;;;;14.13;5.33;;;;;;;5.20;56.42;96783.50;8382999;28;20255;-67
2022/04/02 01:39:18;;;;;;;23.37;5.27;;;;;;;5.21;55.86;96785.13;8383069;28;20242;-66
2022/04/02 01:43:20;;;;;;;15.47;5.50;;;;;;;5.22;56.06;96791.97;8383864;28;20424;-68
2022/04/02 01:47:23;;;;;;;12.87;5.53;;;;;;;5.34;56.05;96788.84;8383822;28;20210;-66
2022/04/02 01:51:27;;;;;;;20.47;5.40;;;;;;;5.38;56.01;96787.81;8384421;28;20230;-67
2022/04/02 01:55:31;;;;;;;19.07;5.00;;;;;;;5.35;56.30;96793.13;8384382;28;20203;-67
2022/04/02 01:59:34;;;;;;;20.03;5.67;;;;;;;5.16;56.54;96793.03;8384292;28;20211;-67
2022/04/02 02:03:37;;;;;;;14.47;5.53;;;;;;;5.20;56.56;96799.72;8383977;28;20199;-67
2022/04/02 02:07:40;;;;;;;17.23;5.43;;;;;;;5.17;56.79;96793.88;8382362;28;20462;-67
2022/04/02 02:11:44;;;;;;;12.53;5.83;;;;;;;5.37;56.18;96804.16;8373610;28;20439;-66
2022/04/02 02:15:47;;;;;;;13.67;5.57;;;;;;;5.34;56.94;96801.69;8381849;28;20228;-67
2022/04/02 02:19:53;;;;;;;19.70;7.45;;;;;;;5.96;55.84;96805.06;8380493;28;20414;-67
2022/04/02 02:23:56;;;;;;;15.90;7.20;;;;;;;5.46;56.09;96808.03;8381606;28;20227;-68
2022/04/02 02:28:01;;;;;;;13.83;7.00;;;;;;;5.40;56.91;96810.88;8381431;28;20297;-67
2022/04/02 02:32:05;;;;;;;13.17;7.30;;;;;;;5.40;56.48;96814.28;8381298;28;20232;-67
2022/04/02 02:36:08;;;;;;;11.67;7.07;;;;;;;5.43;56.48;96813.31;8381128;28;20231;-67
2022/04/02 02:40:12;;;;;;;19.37;7.50;;;;;;;5.31;57.04;96812.09;8380241;28;20226;-67
2022/04/02 02:44:16;;;;;;;16.10;7.00;;;;;;;5.37;56.38;96801.59;8380910;28;20453;-67
2022/04/02 02:48:19;;;;;;;12.80;6.53;;;;;;;5.47;56.69;96813.13;8380518;28;20234;-67
2022/04/02 02:52:22;;;;;;;13.53;6.57;;;;;;;5.48;56.69;96808.81;8380776;28;20231;-67
2022/04/02 02:56:24;;;;;;;12.87;6.73;;;;;;;5.39;56.64;96809.22;8380334;28;20236;-67
2022/04/02 03:00:29;;;;;;;13.73;6.93;;;;;;;5.34;56.87;96809.41;8380204;28;20430;-67
2022/04/02 03:04:31;;;;;;;13.50;6.30;;;;;;;5.31;57.09;96804.38;8347491;28;20235;-67
2022/04/02 03:08:34;;;;;;;11.83;5.50;;;;;;;5.40;56.75;96808.31;8347013;28;20232;-67
2022/04/02 03:12:37;;;;;;;11.30;5.07;;;;;;;5.45;56.58;96811.53;8347192;28;20228;-67
2022/04/02 03:16:41;;;;;;;13.53;5.03;;;;;;;5.16;56.86;96813.56;8347034;28;20516;-67
2022/04/02 03:20:44;;;;;;;11.77;4.90;;;;;;;5.28;56.09;96809.66;8347065;28;20239;-67
2022/04/02 03:24:47;;;;;;;14.90;5.30;;;;;;;5.33;56.01;96819.72;8346778;28;20231;-67
2022/04/02 03:28:51;;;;;;;7.73;5.07;;;;;;;5.33;56.26;96815.44;8346909;28;20557;-69
2022/04/02 03:32:55;;;;;;;7.93;5.30;;;;;;;5.05;56.63;96815.75;8346952;28;20239;-67
2022/04/02 03:36:58;;;;;;;8.07;4.50;;;;;;;5.35;56.46;96816.22;8347024;28;20231;-67
2022/04/02 03:41:02;;;;;;;13.33;4.77;;;;;;;4.62;57.34;96823.38;8346927;28;20241;-67
2022/04/02 03:45:06;;;;;;;10.57;5.27;;;;;;;4.79;57.68;96824.47;8346992;28;20231;-67
2022/04/02 03:49:13;;;;;;;10.00;4.87;;;;;;;4.82;57.38;96829.50;8346516;28;20227;-67
2022/04/02 03:53:16;;;;;;;9.17;4.47;;;;;;;4.67;57.69;96823.22;8346682;28;20228;-67
2022/04/02 03:57:20;;;;;;;9.30;4.53;;;;;;;4.76;56.95;96828.00;8346691;28;20242;-68
2022/04/02 04:01:23;;;;;;;10.70;4.70;;;;;;;4.82;58.11;96824.38;8353849;28;20236;-67
2022/04/02 04:05:28;;;;;;;9.37;4.77;;;;;;;4.50;58.08;96834.97;8379516;28;20239;-67
2022/04/02 04:09:31;;;;;;;11.20;4.80;;;;;;;4.56;57.94;96836.47;8380215;28;20522;-66
2022/04/02 04:13:34;;;;;;;11.17;5.20;;;;;;;4.75;57.57;96839.16;8385459;28;20234;-67
2022/04/02 04:17:38;;;;;;;9.73;4.97;;;;;;;4.68;57.80;96833.44;8385298;28;20234;-67
2022/04/02 04:21:43;;;;;;;11.37;4.77;;;;;;;4.55;57.55;96849.31;8385356;28;20232;-67
2022/04/02 04:25:45;;;;;;;11.80;4.70;;;;;;;4.89;56.93;96849.72;8385088;28;20399;-67
2022/04/02 04:29:48;;;;;;;8.53;4.57;;;;;;;4.75;56.87;96851.97;8384906;28;20394;-66
2022/04/02 04:33:52;;;;;;;10.63;4.80;;;;;;;4.69;56.36;96858.16;8384650;28;20238;-67
2022/04/02 04:37:56;;;;;;;9.80;4.60;;;;;;;4.76;56.83;96865.63;8384778;28;20231;-67
2022/04/02 04:41:59;;;;;;;15.33;4.67;;;;;;;4.41;56.77;96871.19;8384391;28;20243;-67
2022/04/02 04:46:03;;;;;;;9.67;5.00;;;;;;;4.76;56.58;96869.03;8384512;28;20447;-67
2022/04/02 04:50:08;;;;;;;8.43;5.40;;;;;;;4.88;56.31;96871.13;8384421;28;20349;-67
2022/04/02 04:54:13;;;;;;;10.20;4.80;;;;;;;4.68;56.96;96873.63;8383827;28;20239;-67
2022/04/02 04:58:16;;;;;;;9.80;4.93;;;;;;;5.05;56.14;96880.72;8383922;28;20235;-67
2022/04/02 05:02:20;;;;;;;8.97;5.10;;;;;;;4.86;56.51;96888.31;8383824;28;20242;-67
2022/04/02 05:06:23;;;;;;;8.07;4.57;;;;;;;4.82;56.10;96894.44;8384138;28;20251;-66
2022/04/02 05:10:27;;;;;;;8.20;4.90;;;;;;;4.88;56.15;96895.94;8383652;28;20236;-66
2022/04/02 05:14:30;;;;;;;12.70;5.70;;;;;;;4.94;56.27;96898.28;8383888;28;20231;-67
2022/04/02 05:18:33;;;;;;;11.30;4.93;;;;;;;5.13;55.97;96906.09;8383554;28;20215;-66
2022/04/02 05:22:36;;;;;;;9.80;5.20;;;;;;;4.68;56.85;96919.78;8383369;28;20236;-68
2022/04/02 05:26:40;;;;;;;7.17;5.27;;;;;;;4.80;56.63;96913.38;8383372;28;20234;-67
2022/04/02 05:30:43;;;;;;;10.40;5.97;;;;;;;4.50;57.09;96911.88;8383032;28;20235;-67
2022/04/02 05:34:46;;;;;;;11.37;5.77;;;;;;;4.62;57.03;96920.84;8382840;28;20338;-66
2022/04/02 05:38:49;;;;;;;12.50;5.60;;;;;;;4.80;56.43;96915.94;8382788;28;20228;-68
2022/04/02 05:42:54;;;;;;;11.23;5.63;;;;;;;4.62;56.95;96920.00;8382476;28;20439;-67
2022/04/02 05:47:00;;;;;;;12.40;6.47;;;;;;;4.85;55.99;96922.53;8382533;28;20557;-67
2022/04/02 05:51:18;;;;;;;11.60;6.00;;;;;;;5.04;55.37;96937.22;8381769;28;20253;-67
2022/04/02 05:55:21;;;;;;;12.07;6.33;;;;;;;4.81;55.79;96938.13;8382053;28;20231;-68
2022/04/02 05:59:25;;;;;;;9.00;5.50;;;;;;;4.61;55.98;96934.56;8381990;28;20235;-67
2022/04/02 06:03:28;;;;;;;11.53;5.83;;;;;;;4.61;56.52;96949.97;8381808;28;20239;-66
2022/04/02 06:07:32;;;;;;;10.50;6.17;;;;;;;4.61;56.52;96949.13;8381737;28;20243;-66
2022/04/02 06:11:35;;;;;;;10.47;6.10;;;;;;;4.55;56.43;96949.31;8381660;28;20234;-67
2022/04/02 06:15:39;;;;;;;10.70;6.17;;;;;;;4.86;55.41;96965.28;8381641;28;20230;-67
2022/04/02 06:19:42;;;;;;;11.37;6.10;;;;;;;4.96;55.44;96960.63;8381314;28;20251;-67
2022/04/02 06:23:45;;;;;;;8.70;5.60;;;;;;;4.97;55.28;96970.00;8381324;28;20231;-67
2022/04/02 06:27:48;;;;;;;12.93;6.33;;;;;;;4.76;55.61;96975.91;8381282;28;20231;-67
2022/04/02 06:31:53;;;;;;;11.07;5.87;;;;;;;4.93;55.12;96985.56;8391294;28;20234;-67
2022/04/02 06:35:56;;;;;;;10.67;5.47;;;;;;;4.88;55.18;96983.19;8397117;28;20234;-67
2022/04/02 06:39:59;;;;;;;6.93;5.70;;;;;;;4.83;54.69;96988.47;8397004;28;20227;-67
2022/04/02 06:44:02;;;;;;;11.13;5.63;;;;;;;4.96;54.57;96988.03;8393990;28;20273;-68
2022/04/02 06:48:09;;;;;;;9.37;5.60;;;;;;;4.90;53.95;96995.03;8397170;28;20231;-67
2022/04/02 06:52:13;;;;;;;8.27;6.23;;;;;;;5.08;53.80;96996.09;8396286;28;20223;-67
2022/04/02 06:56:18;;;;;;;8.17;5.50;;;;;;;5.00;54.50;97002.41;8396653;28;20238;-67
2022/04/02 07:00:21;;;;;;;10.47;5.33;;;;;;;4.90;54.06;97010.44;8407767;28;20234;-67
2022/04/02 07:04:25;;;;;;;11.40;4.97;;;;;;;5.27;53.35;97014.19;8409013;28;20265;-66
2022/04/02 07:08:29;;;;;;;10.07;5.13;;;;;;;4.97;54.24;97017.91;8413477;28;20235;-67
2022/04/02 07:12:32;;;;;;;9.57;5.40;;;;;;;5.38;53.30;97025.78;8406607;28;20534;-67
2022/04/02 07:16:35;;;;;;;8.90;5.30;;;;;;;5.43;52.99;97027.28;8380225;28;20543;-66
2022/04/02 07:20:40;;;;;;;9.70;4.97;;;;;;;4.92;53.19;97033.47;8379580;28;20235;-67
2022/04/02 07:24:43;;;;;;;7.50;5.33;;;;;;;5.17;53.14;97040.28;8379790;28;20227;-66
2022/04/02 07:28:46;;;;;;;9.40;5.17;;;;;;;5.09;52.22;97053.38;8379608;28;20325;-66
2022/04/02 07:32:49;;;;;;;8.97;5.30;;;;;;;4.94;52.76;97059.09;8379776;28;20235;-66
2022/04/02 07:36:59;;;;;;;6.53;5.17;;;;;;;5.03;51.26;97071.59;8379734;28;20230;-66
2022/04/02 07:41:07;;;;;;;9.23;4.60;;;;;;;5.03;51.59;97076.72;8379700;28;20236;-66
2022/04/02 07:45:13;;;;;;;9.10;4.57;;;;;;;4.98;51.73;97081.16;8382948;28;20301;-67
2022/04/02 07:49:20;;;;;;;8.87;4.33;;;;;;;4.94;52.23;97083.00;8386177;28;20430;-66
2022/04/02 07:53:26;;;;;;;11.07;4.50;;;;;;;5.17;51.81;97092.44;8386064;28;20456;-67
2022/04/02 07:57:35;;;;;;;10.60;4.40;;;;;;;5.06;52.03;97092.84;8385789;28;20247;-67
2022/04/02 08:01:38;;;;;;;10.87;5.00;;;;;;;5.15;51.55;97096.78;8385858;28;20231;-67
2022/04/02 08:05:42;;;;;;;9.20;4.77;;;;;;;5.26;51.58;97097.22;8385829;28;20595;-66
2022/04/02 08:09:47;;;;;;;6.63;4.90;;;;;;;5.14;51.85;97107.97;8385760;28;20236;-67
2022/04/02 08:13:49;;;;;;;8.03;4.93;;;;;;;5.39;52.07;97117.34;8385479;28;20234;-68
2022/04/02 08:17:55;;;;;;;8.20;5.10;;;;;;;5.43;51.37;97119.72;8385622;28;20401;-67
2022/04/02 08:21:57;;;;;;;9.23;5.20;;;;;;;5.53;51.25;97124.53;8385631;28;20282;-66
2022/04/02 08:26:11;;;;;;;9.97;4.67;;;;;;;5.64;51.01;97124.94;8385292;28;20231;-66
2022/04/02 08:30:18;;;;;;;7.60;5.30;;;;;;;5.74;50.57;97133.97;8384815;28;20416;-67
2022/04/02 08:34:29;;;;;;;10.00;5.87;;;;;;;5.82;50.81;97139.66;8384974;28;20450;-67
2022/04/02 08:38:40;;;;;;;7.43;5.20;;;;;;;6.37;59.25;97138.41;8384852;28;20238;-64
2022/04/02 08:43:19;;;;;;;8.40;5.20;;;;;;;6.58;49.23;97152.13;8384594;28;20245;-66
2022/04/02 08:48:22;;;;;;;9.60;5.37;;;;;;;6.35;50.37;97159.03;8353117;28;20227;-66
2022/04/02 08:52:32;;;;;;;10.67;5.83;;;;;;;6.26;49.87;97167.97;8384080;28;20573;-66
2022/04/02 08:56:39;;;;;;;9.77;5.63;;;;;;;6.06;50.23;97180.75;8383488;28;20557;-66
2022/04/02 09:00:45;;;;;;;8.93;5.47;;;;;;;6.36;49.60;97181.28;8383900;28;20227;-66
2022/04/02 09:05:09;;;;;;;7.90;5.60;;;;;;;6.17;49.03;97188.03;8383829;28;20227;-66
2022/04/02 09:09:17;;;;;;;7.27;5.10;;;;;;;6.80;48.25;97191.50;8383308;28;20534;-66
2022/04/02 09:13:50;;;;;;;7.70;5.50;;;;;;;6.52;49.44;97203.81;8383393;28;20236;-67
2022/04/02 09:18:03;;;;;;;8.37;5.63;;;;;;;6.25;48.17;97204.84;8383617;28;20231;-67
2022/04/02 09:22:23;;;;;;;11.80;5.60;;;;;;;6.44;48.09;97204.13;8383681;28;20231;-66
2022/04/02 09:26:48;;;;;;;7.70;5.73;;;;;;;6.77;48.39;97211.38;8383037;28;20237;-68
2022/04/02 09:31:30;;;;;;;8.33;5.73;;;;;;;6.80;47.93;97219.00;8383254;28;20230;-68
2022/04/02 09:35:57;;;;;;;12.33;5.27;;;;;;;7.18;47.20;97214.81;8361829;28;20226;-66
2022/04/02 09:40:05;;;;;;;9.57;5.40;;;;;;;7.15;46.43;97220.06;8383235;28;20224;-66
2022/04/02 09:44:23;;;;;;;11.10;5.90;;;;;;;6.89;47.78;97226.31;8382806;28;20232;-66
2022/04/02 09:48:28;;;;;;;7.53;5.90;;;;;;;6.78;47.14;97224.19;8382415;28;20224;-66
2022/04/02 09:52:33;;;;;;;8.33;5.67;;;;;;;6.90;47.46;97222.84;8382509;28;20232;-66
2022/04/02 09:56:41;;;;;;;8.97;6.00;;;;;;;7.24;46.20;97221.44;8382498;28;20235;-66
2022/04/02 10:00:52;;;;;;;8.03;6.03;;;;;;;7.56;46.33;97224.34;8382483;28;20227;-66
2022/04/02 10:04:57;;;;;;;6.47;5.47;;;;;;;7.64;47.01;97228.25;8382401;28;20238;-67
2022/04/02 10:09:11;;;;;;;12.90;6.13;;;;;;;7.78;46.93;97230.22;8381171;28;20573;-66
2022/04/02 10:13:14;;;;;;;7.93;6.30;;;;;;;7.50;46.66;97238.34;8381717;28;20231;-67
2022/04/02 10:17:25;;;;;;;9.97;5.87;;;;;;;7.96;46.43;97241.44;8382020;28;20235;-66
2022/04/02 10:21:30;;;;;;;9.33;6.10;;;;;;;7.87;46.31;97236.69;8381651;28;20239;-67
2022/04/02 10:25:45;;;;;;;9.50;5.87;;;;;;;7.80;45.39;97238.72;8381728;28;20526;-66
2022/04/02 10:30:06;;;;;;;10.03;6.60;;;;;;;8.03;45.22;97248.00;8381451;28;20228;-67
2022/04/02 10:34:11;;;;;;;11.17;5.97;;;;;;;8.03;43.73;97247.16;8380475;28;20223;-69
2022/04/02 10:38:33;;;;;;;7.07;5.47;;;;;;;8.01;44.26;97249.81;8381064;28;20550;-67
2022/04/02 10:42:39;;;;;;;8.37;6.07;;;;;;;7.70;44.13;97245.19;8380803;28;20237;-66
2022/04/02 10:46:45;;;;;;;6.57;5.50;;;;;;;7.61;43.92;97254.16;8381069;28;20583;-67
2022/04/02 10:50:49;;;;;;;9.83;5.53;;;;;;;7.80;43.49;97255.91;8380526;28;20227;-66
2022/04/02 10:54:52;;;;;;;7.43;5.30;;;;;;;7.34;43.32;97257.94;8380596;28;20238;-67
2022/04/02 10:58:58;;;;;;;11.50;4.60;;;;;;;9.74;72.88;97275.03;8380505;28;20231;-65
2022/04/02 11:03:03;;;;;;;7.00;5.33;;;;;;;11.51;50.63;97270.47;8380315;28;20242;-66
2022/04/02 11:07:06;;;;;;;8.57;4.80;;;;;;;10.69;46.49;97274.31;8380295;28;20234;-66
2022/04/02 11:11:20;;;;;;;8.30;4.60;;;;;;;10.26;39.53;97280.06;8380018;28;20238;-69
2022/04/02 11:15:25;;;;;;;6.07;4.70;;;;;;;8.71;42.39;97287.91;8380406;28;20238;-69
2022/04/02 11:23:57;;;;;;;6.83;4.73;;;;;;;8.78;43.45;97292.72;8380127;28;20231;-67
2022/04/02 11:28:11;;;;;;;7.93;3.90;;;;;;;8.52;44.21;97293.94;8380267;28;20405;-68
2022/04/02 11:32:17;;;;;;;7.60;4.57;;;;;;;8.93;43.43;97292.88;8379487;28;20236;-68
2022/04/02 11:36:24;;;;;;;6.93;4.53;;;;;;;8.53;43.60;97289.59;8379950;28;20238;-70
2022/04/02 11:40:28;;;;;;;6.10;3.97;;;;;;;8.71;42.76;97288.75;8379790;28;20243;-68
2022/04/02 11:44:36;;;;;;;5.37;4.10;;;;;;;8.51;42.56;97287.13;8406860;28;20226;-68
2022/04/02 11:48:52;;;;;;;7.60;4.67;;;;;;;8.64;43.86;97299.44;8412910;28;20289;-69
2022/04/02 11:52:56;;;;;;;7.87;4.27;;;;;;;8.51;44.03;97302.59;8412741;28;20230;-68
2022/04/02 11:57:09;;;;;;;6.03;4.20;;;;;;;8.29;43.57;97307.88;8412976;28;20235;-68
2022/04/02 12:01:14;;;;;;;6.47;4.17;;;;;;;8.18;44.53;97304.94;8412383;28;20225;-68
2022/04/02 12:05:37;;;;;;;5.33;3.60;;;;;;;7.54;43.92;97313.75;8398450;28;20232;-70
2022/04/02 12:09:50;;;;;;;5.87;3.50;;;;;;;7.63;45.39;97323.66;8365534;28;20277;-67
2022/04/02 12:13:56;;;;;;;8.90;3.67;;;;;;;7.51;44.49;97313.88;8346158;28;20228;-68
2022/04/02 12:18:07;;;;;;;4.40;3.40;;;;;;;7.60;45.14;97318.66;8361019;28;20231;-69
2022/04/02 12:22:25;;;;;;;7.30;3.40;;;;;;;8.25;43.93;97315.84;8373678;28;20224;-68
2022/04/02 12:26:28;;;;;;;5.30;3.57;;;;;;;8.05;43.71;97319.28;8378980;28;20231;-68
2022/04/02 12:30:33;;;;;;;8.63;4.53;;;;;;;8.06;43.83;97314.06;8379900;28;20227;-66
2022/04/02 12:34:36;;;;;;;6.33;4.57;;;;;;;8.61;43.75;97310.75;8382759;28;20395;-65
2022/04/02 12:38:41;;;;;;;6.40;4.13;;;;;;;8.73;41.56;97307.56;8384599;28;20227;-65
2022/04/02 12:42:45;;;;;;;4.20;3.70;;;;;;;8.79;42.34;97303.88;8384317;28;20430;-65
2022/04/02 12:46:48;;;;;;;9.83;5.10;;;;;;;8.97;42.61;97307.31;8384538;28;20228;-65
2022/04/02 12:50:53;;;;;;;9.33;5.40;;;;;;;9.20;41.90;97308.78;8384634;28;20227;-68
2022/04/02 12:54:58;;;;;;;9.00;7.17;;;;;;;9.05;41.30;97305.19;8384472;28;20231;-65
2022/04/02 12:59:01;;;;;;;13.67;7.27;;;;;;;8.96;41.98;97308.22;8384206;28;20254;-65
2022/04/02 13:03:05;;;;;;;9.50;8.50;;;;;;;9.27;42.08;97314.47;8384179;28;20255;-65
2022/04/02 13:07:12;;;;;;;8.60;6.13;;;;;;;8.47;40.94;97316.53;8383649;28;20396;-67
2022/04/02 13:11:32;;;;;;;6.83;5.40;;;;;;;9.04;40.74;97316.44;8384088;28;20401;-66
2022/04/02 13:15:34;;;;;;;7.83;5.07;;;;;;;9.02;40.45;97322.59;8383972;28;20236;-65
2022/04/02 13:24:28;;;;;;;7.33;4.57;;;;;;;8.55;40.40;97327.34;8383644;28;20238;-65
2022/04/02 13:28:43;;;;;;;8.37;4.80;;;;;;;9.07;41.02;97320.63;8383217;28;20494;-65
2022/04/02 13:33:29;;;;;;;6.80;3.83;;;;;;;8.56;39.61;97330.75;8383211;28;20567;-66
2022/04/02 13:37:43;;;;;;;7.23;4.40;;;;;;;8.49;41.19;97330.22;8385557;28;20223;-65
2022/04/02 13:41:52;;;;;;;6.37;3.80;;;;;;;8.55;40.71;97342.00;8382321;28;20255;-65
2022/04/02 13:45:57;;;;;;;5.83;4.20;;;;;;;8.38;41.00;97333.25;8382478;28;20253;-65
2022/04/02 13:50:00;;;;;;;7.23;3.73;;;;;;;8.61;40.90;97329.63;8383011;28;20254;-65
2022/04/02 13:54:05;;;;;;;6.70;4.43;;;;;;;8.64;41.28;97338.16;8382431;28;20568;-65
2022/04/02 13:58:09;;;;;;;6.87;4.17;;;;;;;8.52;40.38;97334.41;8382590;28;20235;-65
2022/04/02 14:02:20;;;;;;;8.20;3.87;;;;;;;8.67;41.46;97330.28;8381614;28;20230;-65
2022/04/02 14:06:25;;;;;;;6.00;3.93;;;;;;;8.28;41.04;97332.00;8383505;28;20228;-67
2022/04/02 14:10:37;;;;;;;6.30;3.50;;;;;;;8.38;41.03;97341.00;8381805;28;20246;-66
2022/04/02 14:14:55;;;;;;;8.17;4.03;;;;;;;8.43;41.03;97339.97;8384620;28;20553;-66
2022/04/02 14:19:04;;;;;;;5.37;3.80;;;;;;;8.45;41.13;97341.56;8415044;28;20250;-66
2022/04/02 14:23:11;;;;;;;6.07;3.73;;;;;;;8.37;40.83;97347.03;8415049;28;20234;-65
2022/04/02 14:27:41;;;;;;;6.10;4.30;;;;;;;8.36;42.04;97355.72;8414335;28;20237;-67
2022/04/02 14:32:16;;;;;;;5.97;5.00;;;;;;;8.41;43.13;97361.53;8398082;28;20426;-66
2022/04/02 14:37:04;;;;;;;6.03;4.03;;;;;;;7.66;43.17;97369.09;8386767;28;20234;-66
2022/04/02 14:41:09;;;;;;;7.43;5.60;;;;;;;7.95;43.79;97378.16;8414088;28;20238;-66
2022/04/02 14:45:37;;;;;;;7.70;4.10;;;;;;;7.50;44.55;97380.06;8413661;28;20226;-67
2022/04/02 14:49:59;;;;;;;5.07;3.83;;;;;;;7.52;43.63;97380.81;8414067;28;20250;-66
2022/04/02 14:54:39;;;;;;;9.20;4.17;;;;;;;7.53;44.59;97385.06;8413268;28;20242;-66
2022/04/02 14:59:16;;;;;;;5.17;3.97;;;;;;;7.85;45.73;97380.31;8413753;28;20223;-66
2022/04/02 15:04:08;;;;;;;5.27;3.90;;;;;;;7.79;45.88;97386.56;8389842;28;20235;-66
2022/04/02 15:08:50;;;;;;;6.07;3.63;;;;;;;7.44;46.20;97398.31;8371589;28;20231;-67
2022/04/02 15:12:55;;;;;;;5.13;3.97;;;;;;;7.52;45.51;97395.44;8379738;28;20243;-67
2022/04/02 15:17:19;;;;;;;5.53;3.70;;;;;;;7.72;44.71;97399.75;8380206;28;20231;-66
2022/04/02 15:21:27;;;;;;;6.13;4.00;;;;;;;7.77;44.50;97403.81;8379684;28;20224;-66
2022/04/02 15:25:35;;;;;;;5.03;3.50;;;;;;;7.82;45.19;97406.19;8379871;28;20235;-66
2022/04/02 15:30:04;;;;;;;8.60;3.70;;;;;;;7.35;44.47;97404.69;8379866;28;20510;-66
2022/04/02 15:34:23;;;;;;;6.73;5.10;;;;;;;7.48;46.23;97417.06;8378955;28;20302;-66
2022/04/02 15:38:35;;;;;;;7.03;4.13;;;;;;;7.61;46.02;97411.34;8379464;28;20235;-66
2022/04/02 15:42:45;;;;;;;5.43;4.13;;;;;;;7.55;46.39;97424.47;8379787;28;20240;-66
2022/04/02 15:46:48;;;;;;;7.57;4.97;;;;;;;7.32;46.71;97425.41;8379860;28;20238;-66
2022/04/02 15:51:07;;;;;;;6.60;4.50;;;;;;;7.18;46.58;97430.28;8379919;28;20227;-66
2022/04/02 15:55:21;;;;;;;9.20;5.40;;;;;;;7.19;46.61;97429.38;8378934;28;20240;-66
2022/04/02 15:59:24;;;;;;;12.10;6.07;;;;;;;7.36;46.41;97444.16;8379291;28;20235;-66
2022/04/02 16:03:53;;;;;;;11.93;8.27;;;;;;;7.23;45.98;97447.25;8379355;28;20242;-66
2022/04/02 16:08:20;;;;;;;11.40;9.10;;;;;;;7.28;46.47;97456.53;8384119;28;20232;-65
2022/04/02 16:12:31;;;;;;;10.80;7.20;;;;;;;7.00;47.98;97452.41;8382591;28;20232;-66
2022/04/02 16:17:11;;;;;;;9.03;7.73;;;;;;;6.91;46.16;97458.78;8385463;28;20238;-65
2022/04/02 16:21:18;;;;;;;15.20;10.30;;;;;;;7.17;46.55;97460.31;8385177;28;20235;-65
2022/04/02 16:25:25;;;;;;;5.83;3.70;;;;;;;7.30;45.90;97462.44;8385581;28;20235;-66
2022/04/02 16:29:28;;;;;;;16.23;10.70;;;;;;;7.08;46.17;97465.81;8385462;28;20294;-66
2022/04/02 16:33:32;;;;;;;7.50;6.20;;;;;;;6.93;46.70;97479.28;8385236;28;20235;-66
2022/04/02 16:37:35;;;;;;;9.50;6.60;;;;;;;6.64;46.33;97482.06;8385178;28;20254;-66
2022/04/02 16:41:42;;;;;;;6.63;4.00;;;;;;;6.57;47.03;97487.50;8384692;28;20227;-67
2022/04/02 16:46:04;;;;;;;4.30;3.40;;;;;;;6.84;46.97;97496.75;8384644;28;20235;-67
2022/04/02 16:50:12;;;;;;;6.23;3.30;;;;;;;6.91;47.47;97494.81;8383776;28;20270;-66
2022/04/02 16:54:16;;;;;;;5.27;3.70;;;;;;;6.81;46.99;97496.84;8384083;28;20242;-67
2022/04/02 16:58:20;;;;;;;8.63;3.67;;;;;;;6.82;47.08;97508.84;8384025;28;20576;-66
2022/04/02 17:02:31;;;;;;;5.17;3.70;;;;;;;6.94;46.69;97510.13;8383959;28;20238;-66
2022/04/02 17:06:35;;;;;;;8.40;3.70;;;;;;;6.76;45.79;97513.38;8383915;28;20291;-66
2022/04/02 17:10:38;;;;;;;5.20;3.80;;;;;;;6.89;46.25;97516.34;8383836;28;20239;-66
2022/04/02 17:14:42;;;;;;;8.97;3.37;;;;;;;6.99;46.61;97525.41;8383763;28;20231;-66
2022/04/02 17:18:45;;;;;;;3.40;3.10;;;;;;;7.09;45.73;97525.91;8383009;28;20228;-66
2022/04/02 17:22:48;;;;;;;8.90;3.70;;;;;;;7.11;46.46;97540.41;8375518;28;20224;-65
2022/04/02 17:26:51;;;;;;;6.07;4.10;;;;;;;7.11;46.61;97545.56;8380548;28;20234;-66
2022/04/02 17:30:56;;;;;;;7.43;4.20;;;;;;;7.09;46.76;97544.78;8383172;28;20238;-67
2022/04/02 17:35:03;;;;;;;7.53;5.27;;;;;;;7.08;47.43;97547.41;8383254;28;20564;-67
2022/04/02 17:39:08;;;;;;;12.77;7.23;;;;;;;7.02;47.44;97545.88;8383243;28;20235;-71
2022/04/02 17:43:14;;;;;;;6.00;4.23;;;;;;;7.06;47.08;97552.59;8374905;28;20250;-70
2022/04/02 17:47:24;;;;;;;8.67;7.17;;;;;;;7.10;47.55;97559.34;8382960;28;20294;-71
2022/04/02 17:51:30;;;;;;;10.30;8.00;;;;;;;6.98;47.83;97562.34;8383094;28;20424;-69
2022/04/02 17:55:35;;;;;;;9.83;6.20;;;;;;;7.02;48.26;97574.22;8382054;28;20232;-71
2022/04/02 17:59:44;;;;;;;8.80;6.10;;;;;;;7.01;48.00;97572.53;8382187;28;20231;-71
2022/04/02 18:03:50;;;;;;;4.10;3.50;;;;;;;6.97;47.82;97587.25;8382206;28;20232;-71
2022/04/02 18:07:53;;;;;;;11.33;6.00;;;;;;;6.82;47.46;97586.06;8382050;28;20231;-69
2022/04/02 18:11:56;;;;;;;14.03;8.60;;;;;;;6.81;47.30;97604.13;8382226;28;20421;-70
2022/04/02 18:15:59;;;;;;;12.93;8.63;;;;;;;6.75;47.12;97607.75;8381849;28;20241;-70
2022/04/02 18:20:05;;;;;;;7.27;4.43;;;;;;;6.68;46.96;97606.28;8381482;28;20276;-70
2022/04/02 18:24:08;;;;;;;5.23;3.50;;;;;;;6.85;46.64;97619.44;8381462;28;20256;-70
2022/04/02 18:28:11;;;;;;;17.97;5.80;;;;;;;10.02;72.60;97633.19;8380083;28;20428;-74
2022/04/02 18:32:17;;;;;;;8.53;5.30;;;;;;;11.63;48.50;97634.59;8381201;28;20231;-77
2022/04/02 18:36:23;;;;;;;5.53;3.30;;;;;;;10.37;40.23;97640.09;8381287;28;20349;-72
2022/04/02 18:40:26;;;;;;;9.97;6.40;;;;;;;8.76;42.59;97648.22;8380930;28;20253;-69
2022/04/02 18:44:29;;;;;;;6.67;5.10;;;;;;;8.21;44.10;97646.13;8381266;28;20258;-69
2022/04/02 18:48:32;;;;;;;8.10;3.73;;;;;;;7.67;44.54;97655.09;8381052;28;20227;-69
2022/04/02 18:52:37;;;;;;;5.07;3.40;;;;;;;7.76;44.22;97662.50;8381037;28;20227;-70
2022/04/02 18:56:39;;;;;;;5.93;3.43;;;;;;;7.60;44.72;97674.28;8380763;28;20232;-70
2022/04/02 19:00:43;;;;;;;14.37;10.17;;;;;;;7.26;45.05;97683.22;8380812;28;20231;-71
2022/04/02 19:04:46;;;;;;;10.07;5.70;;;;;;;7.20;44.41;97694.59;8380576;28;20434;-71
2022/04/02 19:08:51;;;;;;;4.70;3.50;;;;;;;7.18;45.45;97692.97;8380399;28;20239;-70
2022/04/02 19:12:54;;;;;;;4.67;3.20;;;;;;;6.91;45.76;97702.47;8380313;28;20538;-69
2022/04/02 19:16:57;;;;;;;9.83;4.73;;;;;;;6.93;46.06;97706.69;8380509;28;20426;-70
2022/04/02 19:21:00;;;;;;;4.30;3.53;;;;;;;6.70;45.82;97717.75;8380333;28;20231;-71
2022/04/02 19:25:06;;;;;;;5.00;3.30;;;;;;;6.59;45.68;97715.53;8380309;28;20560;-70
2022/04/02 19:29:09;;;;;;;6.17;4.47;;;;;;;6.23;46.04;97723.50;8363053;28;20548;-69
2022/04/02 19:33:12;;;;;;;6.23;3.40;;;;;;;6.13;46.90;97728.97;8380015;28;20231;-69
2022/04/02 19:37:15;;;;;;;5.80;4.30;;;;;;;6.52;47.36;97736.34;8379490;28;20530;-70
2022/04/02 19:41:19;;;;;;;6.03;5.00;;;;;;;6.92;45.74;97740.19;8381703;28;20420;-67
2022/04/02 19:45:25;;;;;;;6.30;3.30;;;;;;;6.78;46.61;97741.50;8386173;28;20424;-69